Greater Binghamton/Edwin A Link field


Codes: KBGM/BGM
Name: Greater Binghamton/Edwin A Link field
City: Binghamton
Country: United States
Elevation: 1636 ft.
Website:
Wikipedia:

Photos at Greater Binghamton/Edwin A Link field


   Photos courtesy of SpottingLog. You can add your own sightings and photos by signing up for a free trial today.



No photos found.

Weather at Greater Binghamton/Edwin A Link field


Time (UTC)DescriptionTempratureWindCloud coverageVisibilityPressureHumidity
19-Apr-2024 03:00Overcast Clouds7°C4 mph, SE100%10000m1012hPa90%
19-Apr-2024 06:00Overcast Clouds6°C4 mph, SE100%10000m1014hPa93%
19-Apr-2024 09:00Overcast Clouds6°C7 mph, SE100%10000m1017hPa94%
19-Apr-2024 12:00Overcast Clouds6°C9 mph, SE100%10000m1019hPa93%
19-Apr-2024 15:00Overcast Clouds8°C13 mph, SE100%10000m1016hPa88%
19-Apr-2024 18:00Overcast Clouds11°C16 mph, S100%10000m1015hPa73%
19-Apr-2024 21:00Light Rain9°C13 mph, S96%10000m1014hPa90%
20-Apr-2024 00:00Light Rain9°C7 mph, S98%10000m1014hPa96%
20-Apr-2024 03:00Light Rain9°C7 mph, W100%10000m1015hPa95%
20-Apr-2024 06:00Overcast Clouds5°C4 mph, W100%10000m1016hPa90%
20-Apr-2024 09:00Overcast Clouds4°C4 mph, SW91%10000m1016hPa92%
20-Apr-2024 12:00Broken Clouds5°C4 mph, W69%10000m1015hPa80%
20-Apr-2024 15:00Few Clouds8°C16 mph, W14%8220m1015hPa59%
20-Apr-2024 18:00Light Rain7°C18 mph, W57%10000m1015hPa52%
20-Apr-2024 21:00Overcast Clouds7°C16 mph, NW96%10000m1015hPa51%
21-Apr-2024 00:00Light Rain3°C9 mph, W86%10000m1017hPa71%
21-Apr-2024 03:00Scattered Clouds1°C9 mph, W34%10000m1018hPa83%
21-Apr-2024 06:00Few Clouds-1°C4 mph, W22%10000m1017hPa92%
21-Apr-2024 09:00Few Clouds-2°C4 mph, SW12%10000m1018hPa94%
21-Apr-2024 12:00Few Clouds2°C9 mph, W14%10000m1019hPa70%
21-Apr-2024 15:00Scattered Clouds7°C13 mph, W48%10000m1017hPa48%
21-Apr-2024 18:00Broken Clouds10°C11 mph, W60%10000m1015hPa41%
21-Apr-2024 21:00Broken Clouds11°C11 mph, W84%10000m1013hPa45%
22-Apr-2024 00:00Broken Clouds4°C9 mph, NW57%10000m1015hPa66%
22-Apr-2024 03:00Clear Sky1°C7 mph, W2%10000m1016hPa76%
22-Apr-2024 06:00Clear Sky1°C7 mph, W2%10000m1016hPa79%
22-Apr-2024 09:00Clear Sky-1°C4 mph, W1%10000m1017hPa91%
22-Apr-2024 12:00Clear Sky3°C7 mph, NW3%10000m1018hPa70%
22-Apr-2024 15:00Clear Sky7°C9 mph, NW9%10000m1018hPa55%
22-Apr-2024 18:00Scattered Clouds10°C9 mph, NW35%10000m1016hPa51%
22-Apr-2024 21:00Broken Clouds10°C7 mph, NW80%10000m1016hPa56%
23-Apr-2024 00:00Broken Clouds5°C4 mph, N61%10000m1017hPa81%
23-Apr-2024 03:00Few Clouds2°C2 mph, SE22%10000m1019hPa89%
23-Apr-2024 06:00Few Clouds2°C4 mph, SE17%10000m1019hPa92%
23-Apr-2024 09:00Scattered Clouds2°C2 mph, S44%10000m1018hPa92%
23-Apr-2024 12:00Broken Clouds6°C4 mph, SE71%10000m1018hPa80%
23-Apr-2024 15:00Overcast Clouds12°C13 mph, S100%10000m1016hPa56%
23-Apr-2024 18:00Overcast Clouds15°C16 mph, SW100%10000m1014hPa54%
23-Apr-2024 21:00Light Rain11°C13 mph, S100%10000m1013hPa80%
24-Apr-2024 00:00Overcast Clouds11°C13 mph, S100%10000m1012hPa75%